HomeShort term forecast

Short term forecast

Graphical weather forecast for the next 48 hours for Montreal:
Short term forecast
This weather forecast is automatically refreshed every 3 hours.

Hourly Experimental Forecast for the next 48 hours ®

Overall summary: Mostly cloudy throughout the day and breezy until this afternoon.

 Date & Hour   Temp   Feel   Baro   Hum   Speed & Bearing   Precipitation   Visibility   Cloud cover   Conditions 
 20/01/2018 - 08:00  2.7°C  -2.6°C  1000.4 hPa  69%  26.3 km/h   --  16.1km  45%  Breezy and Partly Cloudy 
 20/01/2018 - 09:00  1.9°C  -4.1°C  1001.6 hPa  77%  30.3 km/h   0.03 mm/h  16.1km  57%  Breezy and Partly Cloudy 
 20/01/2018 - 10:00  1.1°C  -5.4°C  1002.5 hPa  85%  34.2 km/h   0.06 mm/h  16.1km  74%  Breezy and Mostly Cloudy 
 20/01/2018 - 11:00  0.9°C  -5.8°C  1002.8 hPa  91%  35.5 km/h   0.05 mm/h  16.1km  85%  Windy and Mostly Cloudy 
 20/01/2018 - 12:00  1.2°C  -5.3°C  1002.8 hPa  93%  34.4 km/h   0.03 mm/h  16.1km  90%  Breezy and Mostly Cloudy 
 20/01/2018 - 13:00  1.6°C  -4.7°C  1003.1 hPa  93%  33.2 km/h   0.02 mm/h  16.1km  93%  Breezy and Mostly Cloudy 
 20/01/2018 - 14:00  2.0°C  -4.1°C  1003.8 hPa  92%  32.1 km/h   0.01 mm/h  16.1km  92%  Breezy and Mostly Cloudy 
 20/01/2018 - 15:00  2.3°C  -3.5°C  1004.8 hPa  90%  31.1 km/h   0.01 mm/h  16.1km  91%  Breezy and Mostly Cloudy 
 20/01/2018 - 16:00  2.8°C  -2.8°C  1005.8 hPa  86%  29.9 km/h   0.01 mm/h  16.1km  89%  Breezy and Mostly Cloudy 
 20/01/2018 - 17:00  3.2°C  -2.0°C  1007.0 hPa  85%  26.9 km/h   0.02 mm/h  16.1km  84%  Mostly Cloudy 
 20/01/2018 - 18:00  3.4°C  -1.6°C  1008.2 hPa  84%  25.5 km/h   0.04 mm/h  16.1km  78%  Mostly Cloudy 
 20/01/2018 - 19:00  2.9°C  -2.0°C  1009.5 hPa  84%  24.2 km/h   0.06 mm/h  16.1km  72%  Mostly Cloudy 
 20/01/2018 - 20:00  1.9°C  -2.9°C  1010.8 hPa  82%  20.8 km/h   0.04 mm/h  16.1km  65%  Mostly Cloudy 
 20/01/2018 - 21:00  0.6°C  -4.1°C  1012.1 hPa  79%  17.4 km/h   0.02 mm/h  16.1km  58%  Partly Cloudy 
 20/01/2018 - 22:00  -0.4°C  -4.9°C  1013.3 hPa  77%  14.8 km/h   0.02 mm/h  16.1km  53%  Partly Cloudy 
 20/01/2018 - 23:00  -1.3°C  -5.4°C  1014.3 hPa  76%  12.3 km/h   0.01 mm/h  16.1km  49%  Partly Cloudy 
 21/01/2018 - 00:00  -2.1°C  -5.8°C  1015.1 hPa  76%  10.0 km/h   0.01 mm/h  16.1km  47%  Partly Cloudy 
 21/01/2018 - 01:00  -2.8°C  -6.0°C  1015.9 hPa  76%  8.1 km/h   0.01 mm/h  16.1km  46%  Partly Cloudy 
 21/01/2018 - 02:00  -3.3°C  -6.1°C  1016.7 hPa  77%  6.6 km/h   0.02 mm/h  16.1km  49%  Partly Cloudy 
 21/01/2018 - 03:00  -3.8°C  -6.1°C  1017.6 hPa  78%  5.6 km/h   0.03 mm/h  12.9km  54%  Partly Cloudy 
 21/01/2018 - 04:00  -4.2°C  -6.3°C  1018.4 hPa  80%  4.9 km/h   0.04 mm/h  8.0km  61%  Mostly Cloudy 
 21/01/2018 - 05:00  -4.9°C  -4.9°C  1019.2 hPa  82%  4.7 km/h   0.04 mm/h  5.5km  72%  Mostly Cloudy 
 21/01/2018 - 06:00  -5.5°C  -5.5°C  1020.0 hPa  84%  4.8 km/h   0.04 mm/h  4.4km  85%  Mostly Cloudy 
 21/01/2018 - 07:00  -5.9°C  -8.2°C  1020.7 hPa  84%  4.9 km/h   0.04 mm/h  5.7km  93%  Mostly Cloudy 
 21/01/2018 - 08:00  -5.8°C  -8.2°C  1021.3 hPa  83%  5.0 km/h   0.03 mm/h  11.0km  91%  Mostly Cloudy 
 21/01/2018 - 09:00  -5.5°C  -7.9°C  1021.8 hPa  81%  5.2 km/h   0.03 mm/h  16.1km  85%  Mostly Cloudy 
 21/01/2018 - 10:00  -5.1°C  -7.6°C  1022.1 hPa  78%  5.5 km/h   0.03 mm/h  16.1km  81%  Mostly Cloudy 
 21/01/2018 - 11:00  -4.8°C  -7.6°C  1022.1 hPa  77%  6.2 km/h   0.03 mm/h  16.1km  82%  Mostly Cloudy 
 21/01/2018 - 12:00  -4.0°C  -7.1°C  1022.0 hPa  74%  7.0 km/h   0.04 mm/h  16.1km  86%  Mostly Cloudy 
 21/01/2018 - 13:00  -3.4°C  -6.5°C  1021.8 hPa  72%  7.4 km/h   0.04 mm/h  16.1km  89%  Mostly Cloudy 
 21/01/2018 - 14:00  -2.9°C  -5.7°C  1021.8 hPa  72%  7.0 km/h   0.03 mm/h  16.1km  90%  Mostly Cloudy 
 21/01/2018 - 15:00  -2.9°C  -5.5°C  1021.8 hPa  74%  6.4 km/h   0.02 mm/h  16.1km  91%  Mostly Cloudy 
 21/01/2018 - 16:00  -3.3°C  -5.9°C  1022.1 hPa  77%  6.3 km/h   0.01 mm/h  16.1km  93%  Mostly Cloudy 
 21/01/2018 - 17:00  -4.1°C  -6.7°C  1022.5 hPa  80%  6.1 km/h   0.01 mm/h  16.1km  93%  Mostly Cloudy 
 21/01/2018 - 18:00  -4.6°C  -7.3°C  1023.1 hPa  81%  6.0 km/h   --  16.1km  93%  Mostly Cloudy 
 21/01/2018 - 19:00  -5.1°C  -7.8°C  1023.7 hPa  82%  6.0 km/h   --  16.1km  93%  Mostly Cloudy 
 21/01/2018 - 20:00  -5.1°C  -7.8°C  1024.1 hPa  82%  5.9 km/h   --  16.1km  95%  Overcast 
 21/01/2018 - 21:00  -5.0°C  -7.7°C  1024.4 hPa  82%  5.9 km/h   --  16.1km  98%  Overcast 
 21/01/2018 - 22:00  -4.9°C  -7.8°C  1024.7 hPa  81%  6.5 km/h   0.01 mm/h  13.7km  100%  Overcast 
 21/01/2018 - 23:00  -4.9°C  -8.5°C  1025.1 hPa  80%  8.2 km/h   0.02 mm/h  13.3km  100%  Overcast 
 22/01/2018 - 00:00  -5.1°C  -9.5°C  1025.5 hPa  78%  10.5 km/h   0.03 mm/h  14.4km  100%  Overcast 
 22/01/2018 - 01:00  -5.4°C  -10.5°C  1026.0 hPa  77%  12.5 km/h   0.04 mm/h  16.1km  100%  Overcast 
 22/01/2018 - 02:00  -6.0°C  -11.6°C  1026.4 hPa  77%  14.0 km/h   0.04 mm/h  16.1km  100%  Overcast 
 22/01/2018 - 03:00  -6.8°C  -12.9°C  1026.8 hPa  77%  15.3 km/h   0.05 mm/h  16.1km  100%  Overcast 
 22/01/2018 - 04:00  -7.7°C  -14.2°C  1027.3 hPa  78%  16.4 km/h   0.06 mm/h  16.1km  100%  Overcast 
 22/01/2018 - 05:00  -8.5°C  -15.5°C  1028.0 hPa  78%  17.4 km/h   0.06 mm/h  16.1km  93%  Mostly Cloudy 
 22/01/2018 - 06:00  -9.4°C  -16.7°C  1028.8 hPa  77%  18.2 km/h   0.05 mm/h  16.1km  84%  Mostly Cloudy 
 22/01/2018 - 07:00  -10.2°C  -17.8°C  1029.4 hPa  78%  19.0 km/h   0.04 mm/h  16.1km  76%  Mostly Cloudy 
Test

 

Past weather and reports

Past weatherFind in this section the past weather conditions, weather archive, graphics, reports and statistics.

Current conditions

Current weather condition for MontrealAll you need to know about the current weather conditions for Montreal. Weather data is updated every 10 minutes.

Weather forecast

Current Montreal weatherSince 2004, celinium.com website has provided accurate weather forecast for Montreal's island.